Time;durP1;ratioP1;P1;durP2;ratioP2;P2;SDS_P1;SDS_P2;PMS_P1;PMS_P2;Temp;Humidity;BMP_temperature;BMP_pressure;BME280_temperature;BME280_humidity;BME280_pressure;Samples;Min_cycle;Max_cycle;Signal;HPM_P1;HPM_P2
2022/01/24 00:01:45;;;;;;;8.70;6.73;;;;;;;;;;4957899;28;20197;-65
2022/01/24 00:04:11;;;;;;;8.87;6.40;;;;;;;;;;4972908;28;20244;-65
2022/01/24 00:06:38;;;;;;;9.07;6.80;;;;;;;;;;4957814;28;20794;-65
2022/01/24 00:09:05;;;;;;;8.43;6.77;;;;;;;;;;4977699;28;20189;-66
2022/01/24 00:12:15;;;;;;;6.20;5.60;;;;;;;;;;4978734;28;21147;-65
2022/01/24 00:28:05;;;;;;;7.87;6.63;;;;;;;;;;4968539;28;20264;-65
2022/01/24 00:30:31;;;;;;;7.83;6.53;;;;;;;;;;4972851;28;20475;-67
2022/01/24 00:32:57;;;;;;;7.60;6.10;;;;;;;;;;4972864;28;20218;-66
2022/01/24 00:35:23;;;;;;;10.10;6.23;;;;;;;;;;4968638;28;20201;-66
2022/01/24 00:37:49;;;;;;;7.60;6.40;;;;;;;;;;4974178;28;20420;-66
2022/01/24 00:40:15;;;;;;;7.10;5.90;;;;;;;;;;4969790;28;20323;-66
2022/01/24 00:45:28;;;;;;;6.20;5.60;;;;;;;;;;4971891;28;20743;-66
2022/01/24 00:53:17;;;;;;;6.40;5.67;;;;;;;;;;4980502;28;21625;-65
2022/01/24 00:55:43;;;;;;;7.67;6.00;;;;;;;;;;4960603;28;20280;-64
2022/01/24 00:58:09;;;;;;;6.77;5.40;;;;;;;;;;4975474;28;20739;-65
2022/01/24 01:00:35;;;;;;;7.27;5.47;;;;;;;;;;4972212;28;20208;-65
2022/01/24 01:03:01;;;;;;;7.13;5.60;;;;;;;;;;4976763;28;20248;-66
2022/01/24 01:18:46;;;;;;;6.47;5.30;;;;;;;;;;4974552;28;20212;-65
2022/01/24 01:21:14;;;;;;;8.37;5.70;;;;;;;;;;4964138;28;20221;-65
2022/01/24 01:23:44;;;;;;;6.83;5.43;;;;;;;;;;4970446;28;20263;-65
2022/01/24 01:26:19;;;;;;;7.40;5.60;;;;;;;;;;4956167;28;20877;-65
2022/01/24 01:28:48;;;;;;;7.50;5.87;;;;;;;;;;4966541;28;20272;-65
2022/01/24 01:31:25;;;;;;;6.93;5.37;;;;;;;;;;4971388;28;20205;-66
2022/01/24 01:34:02;;;;;;;7.23;5.20;;;;;;;;;;4975607;28;20205;-65
2022/01/24 01:52:52;;;;;;;6.50;5.50;;;;;;;;;;4970727;28;20275;-65
2022/01/24 01:57:51;;;;;;;7.23;5.90;;;;;;;;;;4974869;28;20193;-65
2022/01/24 02:00:16;;;;;;;6.80;5.77;;;;;;;;;;4972234;28;20186;-66
2022/01/24 02:02:42;;;;;;;7.07;5.53;;;;;;;;;;4970849;28;20201;-64
2022/01/24 02:05:08;;;;;;;6.47;5.50;;;;;;;;;;4956157;28;20197;-65
2022/01/24 02:07:37;;;;;;;5.90;5.30;;;;;;;;;;4972131;28;20308;-65
2022/01/24 02:10:03;;;;;;;6.37;5.50;;;;;;;;;;4950700;28;20209;-64
2022/01/24 02:12:29;;;;;;;6.80;5.43;;;;;;;;;;4972015;28;20296;-66
2022/01/24 02:14:59;;;;;;;6.70;5.33;;;;;;;;;;4962327;28;20205;-66
2022/01/24 02:17:49;;;;;;;6.10;5.23;;;;;;;;;;4970547;28;20211;-65
2022/01/24 02:23:01;;;;;;;7.20;5.63;;;;;;;;;;4953636;28;20205;-65
2022/01/24 02:25:29;;;;;;;6.97;6.13;;;;;;;;;;4954574;28;20200;-65
2022/01/24 02:27:59;;;;;;;6.70;5.70;;;;;;;;;;4973295;28;20206;-65
2022/01/24 02:30:50;;;;;;;7.27;5.53;;;;;;;;;;4967205;28;20182;-64
2022/01/24 02:33:16;;;;;;;7.17;5.27;;;;;;;;;;4967735;28;20189;-65
2022/01/24 02:35:42;;;;;;;6.93;5.20;;;;;;;;;;4973400;28;20248;-65
2022/01/24 02:38:20;;;;;;;5.67;5.00;;;;;;;;;;4971585;28;20194;-65
2022/01/24 02:46:00;;;;;;;7.13;5.27;;;;;;;;;;4974823;28;20869;-65
2022/01/24 02:49:02;;;;;;;6.00;5.07;;;;;;;;;;4933704;28;20197;-65
2022/01/24 02:51:47;;;;;;;5.80;5.07;;;;;;;;;;4969252;28;20221;-65
2022/01/24 02:54:31;;;;;;;6.27;5.27;;;;;;;;;;4974637;28;20190;-64
2022/01/24 02:56:57;;;;;;;5.73;5.13;;;;;;;;;;4973262;28;20239;-65
2022/01/24 02:59:23;;;;;;;6.07;5.17;;;;;;;;;;4967125;28;20190;-66
2022/01/24 03:01:49;;;;;;;5.50;4.80;;;;;;;;;;4976124;28;20499;-64
2022/01/24 03:04:15;;;;;;;6.10;5.23;;;;;;;;;;4973154;28;20202;-65
2022/01/24 03:06:41;;;;;;;5.67;4.80;;;;;;;;;;4975595;28;20253;-65
2022/01/24 03:09:07;;;;;;;5.47;4.83;;;;;;;;;;4975259;28;20201;-65
2022/01/24 03:12:38;;;;;;;5.27;4.77;;;;;;;;;;4958470;28;20224;-65
2022/01/24 03:14:20;;;;;;;5.60;5.10;;;;;;;;;;4951128;28;20584;-64
2022/01/24 03:16:46;;;;;;;5.60;5.10;;;;;;;;;;4971991;28;20304;-64
2022/01/24 03:19:13;;;;;;;5.60;5.10;;;;;;;;;;4959724;28;20201;-65
2022/01/24 03:21:39;;;;;;;5.33;4.83;;;;;;;;;;4977717;28;20325;-65
2022/01/24 03:24:05;;;;;;;5.57;4.97;;;;;;;;;;4977525;28;20547;-64
2022/01/24 03:26:31;;;;;;;6.60;5.00;;;;;;;;;;4976503;28;20679;-64
2022/01/24 03:28:57;;;;;;;5.50;5.00;;;;;;;;;;4968259;28;20206;-65
2022/01/24 03:31:23;;;;;;;5.97;4.97;;;;;;;;;;4968476;28;20220;-65
2022/01/24 03:33:49;;;;;;;6.63;5.90;;;;;;;;;;4967477;28;20230;-66
2022/01/24 03:36:14;;;;;;;5.57;4.97;;;;;;;;;;4970506;28;20224;-64
2022/01/24 03:38:40;;;;;;;6.30;5.70;;;;;;;;;;4977333;28;20277;-65
2022/01/24 03:41:06;;;;;;;6.00;5.40;;;;;;;;;;4972875;28;20710;-65
2022/01/24 03:43:33;;;;;;;6.97;5.60;;;;;;;;;;4951894;28;21268;-65
2022/01/24 03:48:40;;;;;;;7.50;5.10;;;;;;;;;;4965518;28;20250;-65
2022/01/24 03:51:06;;;;;;;6.40;5.57;;;;;;;;;;4956145;28;20233;-64
2022/01/24 03:53:32;;;;;;;6.77;5.60;;;;;;;;;;4967405;28;20205;-65
2022/01/24 03:55:58;;;;;;;5.73;5.13;;;;;;;;;;4962820;28;20632;-64
2022/01/24 03:58:24;;;;;;;5.47;4.70;;;;;;;;;;4968787;28;20200;-65
2022/01/24 04:00:50;;;;;;;6.37;5.07;;;;;;;;;;4970681;28;20193;-65
2022/01/24 04:03:16;;;;;;;6.47;5.40;;;;;;;;;;4968192;28;20252;-65
2022/01/24 04:05:42;;;;;;;5.90;5.27;;;;;;;;;;4973526;28;20312;-64
2022/01/24 04:08:08;;;;;;;7.37;5.63;;;;;;;;;;4971404;28;20197;-65
2022/01/24 04:10:43;;;;;;;6.90;5.73;;;;;;;;;;4956909;28;20966;-65
2022/01/24 04:13:22;;;;;;;5.77;5.07;;;;;;;;;;4969801;28;20318;-65
2022/01/24 04:23:40;;;;;;;5.90;5.30;;;;;;;;;;4955311;28;20753;-67
2022/01/24 04:26:06;;;;;;;6.97;5.47;;;;;;;;;;4972942;28;20193;-65
2022/01/24 04:28:32;;;;;;;6.73;5.63;;;;;;;;;;4969945;28;20320;-64
2022/01/24 04:30:58;;;;;;;6.13;5.53;;;;;;;;;;4970926;28;20193;-65
2022/01/24 04:33:24;;;;;;;6.40;5.80;;;;;;;;;;4971087;28;20204;-65
2022/01/24 04:35:50;;;;;;;6.50;5.90;;;;;;;;;;4972873;28;20203;-65
2022/01/24 04:38:17;;;;;;;6.57;5.43;;;;;;;;;;4972051;28;20204;-64
2022/01/24 04:40:43;;;;;;;6.67;5.70;;;;;;;;;;4971801;28;20205;-65
2022/01/24 04:43:34;;;;;;;6.27;5.67;;;;;;;;;;4969531;28;20284;-65
2022/01/24 04:51:51;;;;;;;5.73;5.23;;;;;;;;;;4954333;28;20756;-65
2022/01/24 04:54:39;;;;;;;6.53;5.87;;;;;;;;;;4981142;28;20181;-63
2022/01/24 04:57:07;;;;;;;6.20;5.60;;;;;;;;;;4982275;28;20221;-65
2022/01/24 04:59:33;;;;;;;6.77;5.90;;;;;;;;;;4980972;28;20289;-64
2022/01/24 05:01:59;;;;;;;5.80;5.20;;;;;;;;;;4967031;28;20202;-65
2022/01/24 05:04:25;;;;;;;7.13;5.70;;;;;;;;;;4969742;28;20225;-65
2022/01/24 05:06:51;;;;;;;6.83;5.80;;;;;;;;;;4974643;28;20237;-65
2022/01/24 05:09:18;;;;;;;6.03;5.27;;;;;;;;;;4974308;28;20877;-64
2022/01/24 05:11:51;;;;;;;6.60;5.43;;;;;;;;;;4974866;28;21445;-64
2022/01/24 05:25:17;;;;;;;6.93;5.63;;;;;;;;;;4977107;28;20284;-65
2022/01/24 05:27:43;;;;;;;5.73;5.20;;;;;;;;;;4965389;28;20228;-65
2022/01/24 05:30:09;;;;;;;5.77;5.17;;;;;;;;;;4951279;28;20216;-64
2022/01/24 05:32:35;;;;;;;5.77;5.27;;;;;;;;;;4968973;28;20226;-64
2022/01/24 05:35:01;;;;;;;5.50;5.00;;;;;;;;;;4973373;28;20193;-66
2022/01/24 05:37:27;;;;;;;5.97;4.77;;;;;;;;;;4973806;28;20185;-66
2022/01/24 05:39:53;;;;;;;5.63;5.07;;;;;;;;;;4964671;28;20197;-65
2022/01/24 05:42:21;;;;;;;5.67;5.10;;;;;;;;;;4969679;28;20289;-65
2022/01/24 05:44:48;;;;;;;5.33;4.80;;;;;;;;;;4975158;28;20213;-64
2022/01/24 05:47:14;;;;;;;5.80;5.20;;;;;;;;;;4973444;28;20580;-64
2022/01/24 05:49:40;;;;;;;5.50;5.00;;;;;;;;;;4973002;28;20193;-65
2022/01/24 05:52:09;;;;;;;5.77;5.27;;;;;;;;;;4966877;28;20812;-63
2022/01/24 05:54:36;;;;;;;6.53;5.10;;;;;;;;;;4970620;28;20208;-65
2022/01/24 05:57:02;;;;;;;5.70;5.17;;;;;;;;;;4959552;28;20194;-65
2022/01/24 05:59:28;;;;;;;6.03;5.07;;;;;;;;;;4974330;28;20291;-65
2022/01/24 06:01:54;;;;;;;6.30;5.50;;;;;;;;;;4962506;28;20735;-64
2022/01/24 06:04:19;;;;;;;5.80;5.20;;;;;;;;;;4968723;28;20231;-64
2022/01/24 06:06:45;;;;;;;5.30;4.80;;;;;;;;;;4962383;28;20237;-65
2022/01/24 06:09:11;;;;;;;5.23;4.73;;;;;;;;;;4969575;28;20189;-65
2022/01/24 06:11:37;;;;;;;5.30;4.73;;;;;;;;;;4966151;28;20330;-64
2022/01/24 06:14:04;;;;;;;5.30;4.80;;;;;;;;;;4964421;28;20198;-63
2022/01/24 06:16:30;;;;;;;9.83;6.67;;;;;;;;;;4969283;28;20197;-64
2022/01/24 06:18:56;;;;;;;8.90;6.30;;;;;;;;;;4967092;28;20206;-65
2022/01/24 06:21:22;;;;;;;7.13;5.60;;;;;;;;;;4974998;28;20214;-65
2022/01/24 06:23:48;;;;;;;9.97;5.97;;;;;;;;;;4977668;28;20303;-64
2022/01/24 06:26:14;;;;;;;8.40;6.20;;;;;;;;;;4977048;28;20209;-64
2022/01/24 06:28:40;;;;;;;5.90;5.30;;;;;;;;;;4971791;28;20201;-63
2022/01/24 06:31:06;;;;;;;10.03;5.43;;;;;;;;;;4980108;28;20229;-64
2022/01/24 06:33:33;;;;;;;6.23;5.37;;;;;;;;;;4980727;28;20282;-64
2022/01/24 06:35:59;;;;;;;6.93;5.67;;;;;;;;;;4974598;28;20260;-64
2022/01/24 06:38:25;;;;;;;6.00;5.10;;;;;;;;;;4969633;28;20216;-65
2022/01/24 06:40:51;;;;;;;7.87;5.43;;;;;;;;;;4987585;28;20198;-65
2022/01/24 06:43:16;;;;;;;8.67;5.50;;;;;;;;;;4991637;28;20207;-66
2022/01/24 06:45:43;;;;;;;7.07;5.37;;;;;;;;;;4990352;28;20942;-65
2022/01/24 06:48:08;;;;;;;5.93;4.93;;;;;;;;;;4974406;28;20202;-65
2022/01/24 06:50:34;;;;;;;8.83;5.70;;;;;;;;;;4993597;28;20197;-65
2022/01/24 06:53:00;;;;;;;5.67;5.17;;;;;;;;;;4988493;28;20305;-65
2022/01/24 06:55:26;;;;;;;8.93;5.80;;;;;;;;;;4983013;28;20202;-66
2022/01/24 06:57:52;;;;;;;7.20;5.27;;;;;;;;;;4989393;28;20269;-66
2022/01/24 07:00:25;;;;;;;7.63;5.30;;;;;;;;;;4973447;28;20284;-66
2022/01/24 07:02:51;;;;;;;6.83;5.10;;;;;;;;;;4988736;28;20194;-65
2022/01/24 07:05:17;;;;;;;7.03;5.03;;;;;;;;;;4987081;28;24241;-65
2022/01/24 07:07:43;;;;;;;6.17;5.03;;;;;;;;;;4990089;28;20206;-66
2022/01/24 07:10:09;;;;;;;5.60;5.10;;;;;;;;;;4990891;28;20228;-66
2022/01/24 07:12:35;;;;;;;5.67;5.17;;;;;;;;;;4992264;28;20400;-66
2022/01/24 07:15:07;;;;;;;5.63;4.73;;;;;;;;;;4991802;28;20190;-65
2022/01/24 07:18:02;;;;;;;6.20;5.43;;;;;;;;;;4987122;28;20709;-66
2022/01/24 07:20:28;;;;;;;5.83;5.23;;;;;;;;;;4985197;28;20797;-65
2022/01/24 07:22:54;;;;;;;5.53;4.97;;;;;;;;;;4990232;28;20280;-66
2022/01/24 07:25:21;;;;;;;5.47;4.97;;;;;;;;;;4985056;28;21703;-64
2022/01/24 07:27:47;;;;;;;5.20;4.70;;;;;;;;;;4988865;28;20189;-67
2022/01/24 07:30:13;;;;;;;6.37;4.83;;;;;;;;;;4981605;28;20213;-66
2022/01/24 07:32:39;;;;;;;5.27;4.70;;;;;;;;;;4967340;28;20217;-65
2022/01/24 07:35:05;;;;;;;5.73;5.23;;;;;;;;;;4984966;28;20613;-66
2022/01/24 07:37:31;;;;;;;6.10;5.37;;;;;;;;;;4988830;28;20671;-66
2022/01/24 07:39:57;;;;;;;5.70;5.10;;;;;;;;;;4984205;28;20190;-65
2022/01/24 07:42:51;;;;;;;5.67;5.00;;;;;;;;;;4981242;28;20284;-66
2022/01/24 07:45:15;;;;;;;5.87;5.23;;;;;;;;;;4980854;28;20220;-64
2022/01/24 07:47:41;;;;;;;5.70;5.17;;;;;;;;;;4977680;28;20718;-65
2022/01/24 07:50:08;;;;;;;6.87;5.67;;;;;;;;;;4975510;28;20213;-65
2022/01/24 07:52:34;;;;;;;6.73;5.30;;;;;;;;;;4975267;28;20376;-65
2022/01/24 07:55:00;;;;;;;6.60;5.97;;;;;;;;;;4975925;28;20193;-65
2022/01/24 07:57:26;;;;;;;6.13;5.53;;;;;;;;;;4981653;28;22654;-65
2022/01/24 07:59:52;;;;;;;7.53;5.53;;;;;;;;;;4977087;28;20570;-66
2022/01/24 08:02:18;;;;;;;6.67;6.03;;;;;;;;;;4976681;28;20638;-65
2022/01/24 08:04:44;;;;;;;6.37;5.53;;;;;;;;;;4976925;28;20738;-64
2022/01/24 08:07:10;;;;;;;6.57;5.87;;;;;;;;;;4984407;28;20284;-65
2022/01/24 08:09:36;;;;;;;6.57;5.80;;;;;;;;;;4980571;28;20219;-65
2022/01/24 08:12:02;;;;;;;6.33;5.73;;;;;;;;;;4979382;28;20782;-64
2022/01/24 08:14:28;;;;;;;6.20;5.60;;;;;;;;;;4974451;28;20243;-64
2022/01/24 08:16:54;;;;;;;5.83;5.23;;;;;;;;;;4977404;28;20238;-66
2022/01/24 08:19:20;;;;;;;6.47;5.83;;;;;;;;;;4974623;28;20197;-65
2022/01/24 08:21:46;;;;;;;6.20;5.20;;;;;;;;;;4975664;28;20284;-65
2022/01/24 08:24:12;;;;;;;6.17;5.57;;;;;;;;;;4976640;28;20201;-65
2022/01/24 08:26:38;;;;;;;6.00;5.40;;;;;;;;;;4976593;28;20319;-65
2022/01/24 08:29:05;;;;;;;6.30;5.70;;;;;;;;;;4958435;28;20348;-65
2022/01/24 08:31:31;;;;;;;6.40;5.57;;;;;;;;;;4974263;28;20217;-66
2022/01/24 08:33:57;;;;;;;6.20;5.60;;;;;;;;;;4977674;28;20260;-65
2022/01/24 08:36:23;;;;;;;7.17;6.17;;;;;;;;;;4972881;28;20196;-65
2022/01/24 08:38:51;;;;;;;6.47;5.63;;;;;;;;;;4982619;28;20209;-66
2022/01/24 08:41:25;;;;;;;6.13;5.53;;;;;;;;;;4980860;28;20616;-65
2022/01/24 08:43:59;;;;;;;8.13;6.33;;;;;;;;;;4983359;28;20558;-65
2022/01/24 08:46:25;;;;;;;6.27;5.67;;;;;;;;;;4988324;28;20182;-66
2022/01/24 08:48:51;;;;;;;6.93;6.03;;;;;;;;;;4970018;28;20233;-65
2022/01/24 08:51:17;;;;;;;7.30;6.33;;;;;;;;;;4974437;28;20698;-65
2022/01/24 08:53:43;;;;;;;6.40;5.80;;;;;;;;;;4982647;28;20660;-65
2022/01/24 08:56:11;;;;;;;6.67;5.70;;;;;;;;;;4986538;28;20200;-66
2022/01/24 08:58:37;;;;;;;6.80;6.20;;;;;;;;;;4974361;28;20975;-65
2022/01/24 09:01:03;;;;;;;6.53;5.90;;;;;;;;;;4956262;28;20200;-66
2022/01/24 09:03:32;;;;;;;6.30;5.63;;;;;;;;;;4972593;28;20221;-66
2022/01/24 09:06:00;;;;;;;7.03;6.33;;;;;;;;;;4949060;28;20236;-66
2022/01/24 09:08:26;;;;;;;6.10;5.50;;;;;;;;;;4974819;28;20824;-65
2022/01/24 09:10:52;;;;;;;7.20;6.50;;;;;;;;;;4977941;28;20193;-65
2022/01/24 09:13:19;;;;;;;6.93;6.20;;;;;;;;;;4959638;28;20218;-66
2022/01/24 09:15:45;;;;;;;7.87;5.93;;;;;;;;;;4991193;28;20560;-66
2022/01/24 09:18:11;;;;;;;8.50;6.10;;;;;;;;;;4981538;28;21141;-65
2022/01/24 09:20:40;;;;;;;7.17;6.57;;;;;;;;;;4983569;28;20221;-65
2022/01/24 09:23:06;;;;;;;6.43;5.83;;;;;;;;;;4966378;28;20276;-66
2022/01/24 09:25:32;;;;;;;7.47;6.77;;;;;;;;;;4981871;28;20207;-66
2022/01/24 09:27:58;;;;;;;7.40;6.30;;;;;;;;;;4978009;28;20189;-66
2022/01/24 09:30:24;;;;;;;8.27;6.87;;;;;;;;;;4978382;28;20217;-65
2022/01/24 09:32:51;;;;;;;7.70;6.90;;;;;;;;;;4981464;28;20213;-66
2022/01/24 09:35:17;;;;;;;9.20;6.70;;;;;;;;;;4967708;28;20201;-66
2022/01/24 09:37:43;;;;;;;9.20;6.90;;;;;;;;;;4970581;28;20566;-66
2022/01/24 09:40:12;;;;;;;7.30;6.70;;;;;;;;;;5004337;28;20239;-66
2022/01/24 09:42:38;;;;;;;10.00;6.90;;;;;;;;;;4993699;28;20193;-65
2022/01/24 09:45:04;;;;;;;7.40;6.47;;;;;;;;;;4982540;28;20197;-65
2022/01/24 09:47:30;;;;;;;7.63;6.93;;;;;;;;;;4982850;28;20566;-66
2022/01/24 09:49:56;;;;;;;7.53;6.83;;;;;;;;;;4961099;28;20205;-66
2022/01/24 09:52:22;;;;;;;6.90;6.33;;;;;;;;;;4981679;28;20218;-66
2022/01/24 09:54:48;;;;;;;7.83;6.90;;;;;;;;;;4991114;28;20201;-66
2022/01/24 09:57:14;;;;;;;6.40;5.80;;;;;;;;;;4988987;28;20197;-65
2022/01/24 09:59:40;;;;;;;7.03;6.33;;;;;;;;;;4976836;28;20205;-65
2022/01/24 10:02:06;;;;;;;8.73;6.43;;;;;;;;;;4977124;28;20228;-66
2022/01/24 10:04:32;;;;;;;8.20;6.70;;;;;;;;;;4987132;28;20658;-65
2022/01/24 10:07:17;;;;;;;7.17;6.47;;;;;;;;;;4976554;28;20244;-66
2022/01/24 10:09:43;;;;;;;8.67;5.67;;;;;;;;;;4980818;28;20583;-66
2022/01/24 10:16:24;;;;;;;6.40;5.80;;;;;;;;;;4972204;28;20224;-64
2022/01/24 10:17:45;;;;;;;7.37;6.10;;;;;;;;;;4991021;28;20559;-65
2022/01/24 10:20:17;;;;;;;7.43;5.53;;;;;;;;;;4986002;28;20202;-66
2022/01/24 10:22:43;;;;;;;6.20;5.70;;;;;;;;;;4987244;28;20197;-66
2022/01/24 10:25:09;;;;;;;6.80;6.03;;;;;;;;;;4963920;28;20216;-66
2022/01/24 10:27:35;;;;;;;5.97;5.10;;;;;;;;;;4962337;28;20567;-66
2022/01/24 10:30:03;;;;;;;5.90;5.30;;;;;;;;;;4979617;28;20198;-66
2022/01/24 10:32:29;;;;;;;5.67;5.17;;;;;;;;;;4980873;28;20269;-66
2022/01/24 10:34:55;;;;;;;5.70;5.20;;;;;;;;;;4980494;28;20363;-66
2022/01/24 10:37:22;;;;;;;6.10;5.50;;;;;;;;;;4983000;28;20533;-66
2022/01/24 10:40:08;;;;;;;8.60;5.47;;;;;;;;;;4984063;28;20208;-66
2022/01/24 10:45:10;;;;;;;6.00;5.40;;;;;;;;;;4985479;28;20195;-67
2022/01/24 10:47:43;;;;;;;5.10;4.70;;;;;;;;;;4983889;28;20220;-65
2022/01/24 10:50:09;;;;;;;5.07;4.57;;;;;;;;;;4985866;28;20662;-65
2022/01/24 10:52:35;;;;;;;4.87;4.47;;;;;;;;;;4983825;28;20229;-65
2022/01/24 10:55:14;;;;;;;5.40;4.60;;;;;;;;;;4963604;28;20212;-66
2022/01/24 10:57:40;;;;;;;6.63;4.50;;;;;;;;;;4974096;28;20189;-66
2022/01/24 11:00:06;;;;;;;5.10;4.60;;;;;;;;;;4970997;28;20194;-66
2022/01/24 11:02:40;;;;;;;5.10;4.60;;;;;;;;;;4978560;28;20339;-66
2022/01/24 11:05:12;;;;;;;8.13;4.67;;;;;;;;;;4976585;28;20613;-67
2022/01/24 11:07:47;;;;;;;5.10;4.63;;;;;;;;;;4986854;28;21113;-66
2022/01/24 11:10:13;;;;;;;4.90;4.50;;;;;;;;;;4979861;28;20198;-66
2022/01/24 11:12:39;;;;;;;5.00;4.50;;;;;;;;;;4979028;28;20929;-66
2022/01/24 11:15:05;;;;;;;5.20;4.50;;;;;;;;;;4972311;28;20999;-67
2022/01/24 11:17:31;;;;;;;5.97;4.27;;;;;;;;;;4988742;28;20212;-65
2022/01/24 11:20:01;;;;;;;4.60;4.20;;;;;;;;;;4983855;28;20221;-67
2022/01/24 11:22:29;;;;;;;4.63;4.33;;;;;;;;;;4980380;28;20208;-67
2022/01/24 11:24:59;;;;;;;4.53;4.07;;;;;;;;;;4982902;28;20208;-66
2022/01/24 11:27:25;;;;;;;4.47;4.17;;;;;;;;;;4986886;28;20296;-67
2022/01/24 11:29:52;;;;;;;5.87;4.30;;;;;;;;;;4987200;28;20209;-66
2022/01/24 11:32:24;;;;;;;11.70;4.17;;;;;;;;;;4957207;28;20987;-63
2022/01/24 11:34:50;;;;;;;5.00;4.20;;;;;;;;;;4973500;28;20657;-63
2022/01/24 11:37:35;;;;;;;5.37;4.37;;;;;;;;;;4974755;28;20909;-64
2022/01/24 11:40:01;;;;;;;4.80;4.40;;;;;;;;;;4983190;28;20201;-63
2022/01/24 11:42:28;;;;;;;4.97;4.43;;;;;;;;;;4980795;28;20431;-64
2022/01/24 11:44:56;;;;;;;4.00;3.70;;;;;;;;;;4974389;28;20340;-62
2022/01/24 11:47:22;;;;;;;4.13;3.77;;;;;;;;;;4979273;28;20228;-63
2022/01/24 11:49:52;;;;;;;4.57;4.13;;;;;;;;;;4977664;28;20198;-63
2022/01/24 11:52:18;;;;;;;5.10;4.57;;;;;;;;;;4943510;28;20259;-64
2022/01/24 11:57:34;;;;;;;5.20;4.43;;;;;;;;;;4973432;28;20316;-64
2022/01/24 12:00:04;;;;;;;4.70;4.17;;;;;;;;;;4961608;28;20205;-64
2022/01/24 12:02:31;;;;;;;4.83;4.40;;;;;;;;;;4974517;28;20382;-64
2022/01/24 12:04:57;;;;;;;5.50;4.50;;;;;;;;;;4984472;28;20213;-64
2022/01/24 12:07:24;;;;;;;4.93;4.53;;;;;;;;;;4978370;28;20730;-64
2022/01/24 12:09:51;;;;;;;4.90;4.40;;;;;;;;;;4976935;28;20610;-64
2022/01/24 12:12:36;;;;;;;5.67;4.73;;;;;;;;;;4982442;28;20244;-64
2022/01/24 12:15:02;;;;;;;5.37;4.60;;;;;;;;;;4982228;28;20289;-64
2022/01/24 12:17:48;;;;;;;4.77;4.37;;;;;;;;;;4977214;28;20197;-64
2022/01/24 12:20:33;;;;;;;4.40;3.90;;;;;;;;;;4973819;28;20630;-64
2022/01/24 12:22:59;;;;;;;4.30;3.90;;;;;;;;;;4982095;28;20293;-64
2022/01/24 12:25:44;;;;;;;4.63;4.23;;;;;;;;;;4985155;28;20674;-64
2022/01/24 12:28:20;;;;;;;4.60;4.23;;;;;;;;;;4986522;28;20206;-65
2022/01/24 12:31:04;;;;;;;4.17;3.83;;;;;;;;;;4989935;28;20272;-64
2022/01/24 12:33:31;;;;;;;5.53;4.33;;;;;;;;;;4984902;28;20233;-64
2022/01/24 12:35:57;;;;;;;4.23;3.83;;;;;;;;;;4965677;28;20288;-65
2022/01/24 12:38:23;;;;;;;5.07;4.57;;;;;;;;;;4990175;28;20190;-65
2022/01/24 12:40:49;;;;;;;4.50;4.10;;;;;;;;;;4983783;28;20190;-65
2022/01/24 12:43:29;;;;;;;5.63;4.17;;;;;;;;;;4986153;28;20212;-63
2022/01/24 12:48:40;;;;;;;4.63;3.90;;;;;;;;;;4983371;28;20209;-65
2022/01/24 12:51:07;;;;;;;4.27;3.97;;;;;;;;;;4971516;28;20206;-65
2022/01/24 12:53:37;;;;;;;4.50;4.10;;;;;;;;;;4982897;28;20225;-65
2022/01/24 12:56:04;;;;;;;3.83;3.53;;;;;;;;;;4971816;28;20280;-64
2022/01/24 12:58:33;;;;;;;5.13;4.63;;;;;;;;;;4964583;28;20193;-65
2022/01/24 13:00:59;;;;;;;6.97;5.60;;;;;;;;;;4977041;28;20579;-66
2022/01/24 13:03:25;;;;;;;5.73;5.10;;;;;;;;;;4974808;28;20194;-67
2022/01/24 13:05:51;;;;;;;5.40;4.70;;;;;;;;;;4953436;28;20248;-66
2022/01/24 13:08:17;;;;;;;4.60;4.20;;;;;;;;;;4977536;28;20189;-65
2022/01/24 13:10:48;;;;;;;4.57;4.10;;;;;;;;;;4980412;28;20682;-66
2022/01/24 13:13:15;;;;;;;6.17;4.60;;;;;;;;;;4982925;28;20229;-67
2022/01/24 13:21:22;;;;;;;5.63;4.00;;;;;;;;;;4978391;28;20220;-66
2022/01/24 13:24:00;;;;;;;4.03;3.73;;;;;;;;;;4976713;28;20559;-66
2022/01/24 13:26:26;;;;;;;4.10;3.70;;;;;;;;;;4960681;28;20332;-65
2022/01/24 13:29:00;;;;;;;5.00;3.80;;;;;;;;;;4976032;28;20213;-65
2022/01/24 13:31:26;;;;;;;7.03;4.07;;;;;;;;;;4975159;28;20197;-65
2022/01/24 13:33:52;;;;;;;6.33;3.77;;;;;;;;;;4975810;28;20216;-65
2022/01/24 13:36:19;;;;;;;8.80;4.50;;;;;;;;;;4964103;28;20190;-65
2022/01/24 13:38:46;;;;;;;5.80;3.77;;;;;;;;;;4977273;28;23928;-65
2022/01/24 13:41:19;;;;;;;4.00;3.70;;;;;;;;;;4961905;28;20287;-65
2022/01/24 13:43:45;;;;;;;4.30;4.00;;;;;;;;;;4975175;28;20181;-67
2022/01/24 13:46:12;;;;;;;4.07;3.67;;;;;;;;;;4975455;28;20197;-65
2022/01/24 13:48:41;;;;;;;4.00;3.50;;;;;;;;;;4974026;28;20242;-67
2022/01/24 13:51:07;;;;;;;3.83;3.53;;;;;;;;;;4970964;28;20194;-64
2022/01/24 13:53:38;;;;;;;4.97;3.70;;;;;;;;;;4976649;28;20540;-65
2022/01/24 13:56:16;;;;;;;6.60;3.60;;;;;;;;;;4985108;28;20605;-65
2022/01/24 13:58:42;;;;;;;4.07;3.67;;;;;;;;;;4970658;28;20246;-66
2022/01/24 14:01:08;;;;;;;6.90;3.57;;;;;;;;;;4978839;28;20212;-66
2022/01/24 14:03:34;;;;;;;3.57;3.23;;;;;;;;;;4978985;28;21242;-66
2022/01/24 14:06:16;;;;;;;4.87;3.63;;;;;;;;;;4974732;28;20531;-67
2022/01/24 14:08:42;;;;;;;3.67;3.37;;;;;;;;;;4976411;28;20511;-65
2022/01/24 14:11:15;;;;;;;6.80;4.00;;;;;;;;;;4966117;28;20663;-65
2022/01/24 14:13:48;;;;;;;3.83;3.53;;;;;;;;;;4958366;28;20312;-65
2022/01/24 14:16:36;;;;;;;4.40;4.00;;;;;;;;;;4975112;28;20265;-66
2022/01/24 14:19:03;;;;;;;3.83;3.53;;;;;;;;;;4950623;28;20197;-66
2022/01/24 14:21:29;;;;;;;5.37;3.40;;;;;;;;;;4991214;28;20224;-65
2022/01/24 14:23:55;;;;;;;5.23;3.50;;;;;;;;;;4959625;28;20202;-67
2022/01/24 14:26:25;;;;;;;4.23;3.83;;;;;;;;;;4964511;28;20663;-65
2022/01/24 14:29:07;;;;;;;5.70;3.53;;;;;;;;;;4946101;28;20213;-66
2022/01/24 14:31:33;;;;;;;4.37;3.63;;;;;;;;;;4952529;28;20259;-66
2022/01/24 14:34:00;;;;;;;3.93;3.53;;;;;;;;;;4968521;28;20193;-66
2022/01/24 14:36:25;;;;;;;4.40;3.27;;;;;;;;;;4966350;28;20227;-65
2022/01/24 14:39:00;;;;;;;4.20;3.80;;;;;;;;;;4972272;28;20197;-65
2022/01/24 14:41:45;;;;;;;3.73;3.33;;;;;;;;;;4977462;28;20280;-65
2022/01/24 14:46:56;;;;;;;4.73;3.50;;;;;;;;;;4978336;28;20387;-66
2022/01/24 14:49:24;;;;;;;6.63;4.10;;;;;;;;;;4960754;28;20200;-66
2022/01/24 14:51:50;;;;;;;5.33;4.17;;;;;;;;;;4970695;28;21570;-65
2022/01/24 14:54:17;;;;;;;4.83;4.43;;;;;;;;;;4969432;28;20204;-66
2022/01/24 14:56:44;;;;;;;5.20;4.57;;;;;;;;;;4947932;28;20270;-65
2022/01/24 14:59:10;;;;;;;5.23;4.23;;;;;;;;;;4974251;28;20212;-65
2022/01/24 15:01:36;;;;;;;4.77;4.20;;;;;;;;;;4974311;28;20186;-65
2022/01/24 15:04:02;;;;;;;8.50;3.90;;;;;;;;;;4977455;28;20699;-66
2022/01/24 15:06:28;;;;;;;6.97;4.13;;;;;;;;;;4984046;28;20229;-66
2022/01/24 15:08:55;;;;;;;4.67;4.17;;;;;;;;;;4977558;28;20201;-65
2022/01/24 15:11:24;;;;;;;4.20;3.80;;;;;;;;;;4980381;28;20685;-65
2022/01/24 15:14:03;;;;;;;4.83;4.37;;;;;;;;;;4970013;28;20668;-65
2022/01/24 15:16:39;;;;;;;4.83;4.37;;;;;;;;;;4963935;28;20236;-66
2022/01/24 15:27:10;;;;;;;4.93;4.40;;;;;;;;;;4959486;28;20209;-65
2022/01/24 15:29:36;;;;;;;4.87;4.37;;;;;;;;;;4976448;28;20197;-65
2022/01/24 15:32:05;;;;;;;7.60;4.47;;;;;;;;;;4968084;28;20236;-65
2022/01/24 15:34:31;;;;;;;5.63;4.50;;;;;;;;;;4972300;28;20248;-66
2022/01/24 15:36:57;;;;;;;7.47;5.13;;;;;;;;;;4980800;28;20200;-66
2022/01/24 15:39:24;;;;;;;6.37;5.10;;;;;;;;;;4968407;28;20387;-66
2022/01/24 15:41:55;;;;;;;6.43;4.77;;;;;;;;;;4966630;28;20292;-65
2022/01/24 15:47:32;;;;;;;7.63;6.07;;;;;;;;;;4974227;28;20271;-65
2022/01/24 15:49:45;;;;;;;11.83;6.50;;;;;;;;;;4962416;28;20213;-66
2022/01/24 15:52:11;;;;;;;12.20;6.10;;;;;;;;;;4972965;28;20304;-65
2022/01/24 15:54:38;;;;;;;8.57;6.00;;;;;;;;;;4978536;28;20630;-65
2022/01/24 15:59:48;;;;;;;11.80;6.20;;;;;;;;;;4957613;28;20228;-65
2022/01/24 16:02:14;;;;;;;7.03;6.33;;;;;;;;;;4973064;28;20555;-65
2022/01/24 16:04:40;;;;;;;11.63;6.90;;;;;;;;;;4961715;28;20198;-66
2022/01/24 16:07:07;;;;;;;8.03;6.40;;;;;;;;;;4967936;28;20242;-68
2022/01/24 16:09:33;;;;;;;10.77;6.17;;;;;;;;;;4971687;28;20193;-66
2022/01/24 16:11:59;;;;;;;8.87;6.30;;;;;;;;;;4971062;28;20881;-66
2022/01/24 16:14:25;;;;;;;11.37;6.87;;;;;;;;;;4983674;28;20194;-66
2022/01/24 16:16:52;;;;;;;9.83;6.70;;;;;;;;;;4983085;28;20212;-66
2022/01/24 16:19:19;;;;;;;10.13;6.07;;;;;;;;;;4985925;28;20202;-66
2022/01/24 16:21:58;;;;;;;7.63;6.63;;;;;;;;;;4989113;28;21098;-65
2022/01/24 16:26:56;;;;;;;7.07;6.03;;;;;;;;;;4986838;28;20555;-65
2022/01/24 16:29:22;;;;;;;7.03;6.43;;;;;;;;;;4981600;28;20600;-65
2022/01/24 16:31:48;;;;;;;9.80;6.70;;;;;;;;;;4971864;28;20311;-64
2022/01/24 16:34:15;;;;;;;7.20;6.50;;;;;;;;;;4956205;28;20198;-65
2022/01/24 16:36:42;;;;;;;8.10;6.77;;;;;;;;;;4971027;28;20489;-64
2022/01/24 16:39:10;;;;;;;6.93;6.30;;;;;;;;;;4973559;28;20197;-64
2022/01/24 16:41:45;;;;;;;7.20;6.60;;;;;;;;;;4979711;28;20716;-66
2022/01/24 16:47:06;;;;;;;7.87;7.17;;;;;;;;;;4977229;28;20271;-65
2022/01/24 16:49:32;;;;;;;8.07;7.37;;;;;;;;;;4982758;28;20189;-65
2022/01/24 16:51:58;;;;;;;8.53;7.57;;;;;;;;;;4982113;28;20233;-64
2022/01/24 16:54:27;;;;;;;9.77;7.60;;;;;;;;;;4983661;28;20190;-64
2022/01/24 16:56:53;;;;;;;8.77;7.93;;;;;;;;;;4968972;28;20217;-64
2022/01/24 16:59:19;;;;;;;10.40;7.83;;;;;;;;;;4984462;28;20200;-65